createdAt,value
2018-03-08T00:01:46.364Z,13.50
2018-03-08T00:04:14.994Z,13.50
2018-03-08T00:06:44.756Z,13.40
2018-03-08T00:09:13.430Z,13.30
2018-03-08T00:11:43.567Z,13.30
2018-03-08T00:14:12.189Z,13.40
2018-03-08T00:19:10.668Z,13.30
2018-03-08T00:21:39.362Z,13.30
2018-03-08T00:24:07.947Z,13.30
2018-03-08T00:26:36.630Z,13.20
2018-03-08T00:29:05.345Z,13.30
2018-03-08T00:31:34.102Z,13.20
2018-03-08T00:34:03.489Z,13.20
2018-03-08T00:36:32.482Z,13.20
2018-03-08T00:39:01.928Z,13.10
2018-03-08T00:41:30.717Z,13.10
2018-03-08T00:43:59.501Z,13.10
2018-03-08T00:46:28.391Z,13.00
2018-03-08T00:48:57.900Z,13.10
2018-03-08T00:51:27.511Z,13.10
2018-03-08T00:53:57.276Z,13.10
2018-03-08T00:56:26.823Z,13.20
2018-03-08T00:58:55.919Z,13.20
2018-03-08T01:01:25.424Z,13.20
2018-03-08T01:03:55.197Z,13.10
2018-03-08T01:06:24.602Z,13.10
2018-03-08T01:08:54.833Z,13.00
2018-03-08T01:11:23.557Z,13.00
2018-03-08T01:13:52.301Z,13.00
2018-03-08T01:16:21.733Z,12.90
2018-03-08T01:18:50.426Z,12.90
2018-03-08T01:21:19.521Z,12.80
2018-03-08T01:23:49.131Z,12.70
2018-03-08T01:26:19.328Z,12.70
2018-03-08T01:28:48.027Z,12.70
2018-03-08T01:31:18.052Z,12.70
2018-03-08T01:33:46.864Z,12.60
2018-03-08T01:36:28.779Z,12.60
2018-03-08T01:38:57.858Z,12.60
2018-03-08T01:41:26.641Z,12.60
2018-03-08T01:43:55.464Z,12.70
2018-03-08T01:46:24.913Z,12.70
2018-03-08T01:48:53.920Z,12.70
2018-03-08T01:53:53.434Z,12.70
2018-03-08T01:56:22.742Z,12.70
2018-03-08T01:58:52.595Z,12.60
2018-03-08T02:01:21.419Z,12.60
2018-03-08T02:03:50.330Z,12.60
2018-03-08T02:06:19.428Z,12.60
2018-03-08T02:08:48.327Z,12.50
2018-03-08T02:11:19.607Z,12.50
2018-03-08T02:18:49.707Z,12.50
2018-03-08T02:21:19.478Z,12.60
2018-03-08T02:23:48.429Z,12.60
2018-03-08T02:26:18.769Z,12.60
2018-03-08T02:28:47.844Z,12.60
2018-03-08T02:31:17.758Z,12.50
2018-03-08T02:33:47.420Z,12.60
2018-03-08T02:36:17.262Z,12.50
2018-03-08T02:38:46.075Z,12.60
2018-03-08T02:41:15.106Z,12.60
2018-03-08T02:43:43.854Z,12.60
2018-03-08T02:46:13.365Z,12.60
2018-03-08T02:48:42.454Z,12.60
2018-03-08T02:51:12.468Z,12.50
2018-03-08T02:53:41.258Z,12.50
2018-03-08T02:56:10.134Z,12.50
2018-03-08T02:58:38.795Z,12.40
2018-03-08T03:01:07.437Z,12.40
2018-03-08T03:03:37.028Z,12.40
2018-03-08T03:06:06.038Z,12.50
2018-03-08T03:08:34.705Z,12.40
2018-03-08T03:11:04.679Z,12.50
2018-03-08T03:13:33.820Z,12.50
2018-03-08T03:16:02.972Z,12.50
2018-03-08T03:18:32.375Z,12.50
2018-03-08T03:21:02.527Z,12.50
2018-03-08T03:26:01.347Z,12.70
2018-03-08T03:28:29.974Z,12.70
2018-03-08T03:30:58.697Z,12.70
2018-03-08T03:33:27.385Z,12.60
2018-03-08T03:35:56.640Z,12.60
2018-03-08T03:38:25.375Z,12.60
2018-03-08T03:40:54.092Z,12.70
2018-03-08T03:43:23.713Z,12.80
2018-03-08T03:45:52.788Z,12.80
2018-03-08T03:48:21.725Z,12.80
2018-03-08T03:50:51.695Z,12.70
2018-03-08T03:53:20.581Z,12.80
2018-03-08T03:55:49.788Z,12.90
2018-03-08T03:58:20.141Z,12.90
2018-03-08T04:00:50.578Z,12.90
2018-03-08T04:03:20.205Z,12.90
2018-03-08T04:05:49.242Z,12.80
2018-03-08T04:08:18.180Z,12.70
2018-03-08T04:10:48.043Z,12.80
2018-03-08T04:13:17.605Z,12.80
2018-03-08T04:15:47.054Z,12.80
2018-03-08T04:18:16.048Z,12.80
2018-03-08T04:20:45.041Z,12.80
2018-03-08T04:23:14.400Z,12.80
2018-03-08T04:25:43.252Z,12.80
2018-03-08T04:28:13.719Z,12.80
2018-03-08T04:30:43.167Z,12.70
2018-03-08T04:33:12.672Z,12.80
2018-03-08T04:35:41.460Z,12.70
2018-03-08T04:38:10.247Z,12.70
2018-03-08T04:40:38.934Z,12.60
2018-03-08T04:43:07.569Z,12.60
2018-03-08T04:45:36.209Z,12.60
2018-03-08T04:48:06.221Z,12.60
2018-03-08T04:50:34.907Z,12.60
2018-03-08T04:53:03.797Z,12.60
2018-03-08T04:55:32.453Z,12.70
2018-03-08T04:58:01.875Z,12.70
2018-03-08T05:03:00.494Z,12.70
2018-03-08T05:07:59.909Z,12.50
2018-03-08T05:10:28.596Z,12.60
2018-03-08T05:12:58.264Z,12.70
2018-03-08T05:15:27.812Z,12.70
2018-03-08T05:17:57.320Z,12.70
2018-03-08T05:20:26.621Z,12.70
2018-03-08T05:22:55.405Z,12.70
2018-03-08T05:25:24.099Z,12.60
2018-03-08T05:27:52.883Z,12.70
2018-03-08T05:30:23.102Z,12.70
2018-03-08T05:32:51.792Z,12.70
2018-03-08T05:35:21.807Z,12.60
2018-03-08T05:37:50.491Z,12.60
2018-03-08T05:40:19.179Z,12.60
2018-03-08T05:42:48.193Z,12.60
2018-03-08T05:45:16.807Z,12.50
2018-03-08T05:47:45.648Z,12.50
2018-03-08T05:50:15.051Z,12.60
2018-03-08T05:52:43.903Z,12.60
2018-03-08T05:55:13.718Z,12.70
2018-03-08T05:57:42.548Z,12.80
2018-03-08T06:00:11.290Z,12.80
2018-03-08T06:02:41.349Z,12.80
2018-03-08T06:05:10.392Z,12.80
2018-03-08T06:07:39.915Z,12.70
2018-03-08T06:10:09.457Z,12.60
2018-03-08T06:12:38.246Z,12.50
2018-03-08T06:15:07.037Z,12.50
2018-03-08T06:17:36.587Z,12.50
2018-03-08T06:20:06.565Z,12.50
2018-03-08T06:22:36.351Z,12.60
2018-03-08T06:25:05.339Z,12.60
2018-03-08T06:27:35.074Z,12.60
2018-03-08T06:30:04.077Z,12.50
2018-03-08T06:32:34.288Z,12.50
2018-03-08T06:35:03.839Z,12.40
2018-03-08T06:37:33.206Z,12.40
2018-03-08T06:40:01.842Z,12.30
2018-03-08T06:42:31.194Z,12.30
2018-03-08T06:45:00.592Z,12.40
2018-03-08T06:47:29.478Z,12.50
2018-03-08T06:49:59.393Z,12.60
2018-03-08T06:52:29.615Z,12.60
2018-03-08T06:54:59.364Z,12.60
2018-03-08T06:59:58.042Z,12.70
2018-03-08T07:02:27.386Z,12.80
2018-03-08T07:04:56.307Z,12.90
2018-03-08T07:09:56.469Z,13.10
2018-03-08T07:14:55.371Z,13.10
2018-03-08T07:19:55.305Z,13.10
2018-03-08T07:22:24.400Z,13.10
2018-03-08T07:24:53.198Z,13.20
2018-03-08T07:27:23.860Z,13.30
2018-03-08T07:29:53.323Z,13.30
2018-03-08T07:37:24.091Z,13.90
2018-03-08T07:44:54.966Z,15.30
2018-03-08T07:54:54.898Z,17.20
2018-03-08T07:57:23.823Z,17.60
2018-03-08T07:59:53.736Z,18.20
2018-03-08T08:02:24.266Z,19.30
2018-03-08T08:05:04.876Z,20.00
2018-03-08T08:10:10.906Z,20.20
2018-03-08T08:12:39.939Z,19.50
2018-03-08T08:15:08.949Z,19.00
2018-03-08T08:17:38.785Z,18.60
2018-03-08T08:22:38.078Z,17.70
2018-03-08T08:25:07.059Z,16.80
2018-03-08T08:27:36.811Z,16.80
2018-03-08T08:35:05.452Z,15.70
2018-03-08T08:37:34.752Z,15.80
2018-03-08T08:40:04.327Z,15.90
2018-03-08T08:42:33.350Z,15.70
2018-03-08T08:47:33.231Z,15.40
2018-03-08T08:50:02.225Z,15.60
2018-03-08T08:52:31.695Z,15.70
2018-03-08T08:55:01.805Z,15.60
2018-03-08T08:57:31.817Z,15.60
2018-03-08T09:00:00.923Z,15.50
2018-03-08T09:02:29.968Z,15.40
2018-03-08T09:04:58.973Z,15.30
2018-03-08T09:07:28.382Z,15.20
2018-03-08T09:09:57.799Z,15.20
2018-03-08T09:14:57.030Z,15.30
2018-03-08T09:17:26.856Z,14.80
2018-03-08T09:19:56.353Z,14.60
2018-03-08T09:27:27.220Z,14.70
2018-03-08T09:29:56.318Z,14.40
2018-03-08T09:32:26.547Z,14.70
2018-03-08T09:34:55.591Z,14.70
2018-03-08T09:37:25.912Z,14.60
2018-03-08T09:42:26.910Z,14.50
2018-03-08T09:44:56.684Z,14.70
2018-03-08T09:52:26.062Z,13.80
2018-03-08T09:54:55.978Z,13.90
2018-03-08T09:57:25.043Z,13.80
2018-03-08T09:59:54.434Z,13.70
2018-03-08T10:02:23.821Z,13.60
2018-03-08T10:04:52.871Z,13.50
2018-03-08T10:07:21.929Z,13.40
2018-03-08T10:09:50.559Z,13.40
2018-03-08T10:12:19.629Z,13.50
2018-03-08T10:14:49.458Z,13.80
2018-03-08T10:17:19.288Z,13.90
2018-03-08T10:19:47.992Z,14.00
2018-03-08T10:27:17.936Z,13.80
2018-03-08T10:29:46.568Z,13.80
2018-03-08T10:34:45.125Z,14.10
2018-03-08T10:39:44.090Z,14.20
2018-03-08T10:42:13.154Z,14.00
2018-03-08T10:47:11.824Z,14.60
2018-03-08T10:49:41.558Z,14.40
2018-03-08T10:52:10.275Z,14.10
2018-03-08T10:54:39.742Z,14.10
2018-03-08T11:02:17.474Z,14.10
2018-03-08T11:07:22.812Z,14.00
2018-03-08T11:09:52.543Z,14.30
2018-03-08T11:17:21.102Z,14.40
2018-03-08T11:22:21.809Z,15.00
2018-03-08T11:27:22.115Z,15.00
2018-03-08T11:32:20.633Z,15.10
2018-03-08T11:34:49.817Z,14.80
2018-03-08T11:37:19.731Z,14.90
2018-03-08T11:42:19.189Z,15.00
2018-03-08T11:44:48.279Z,14.90
2018-03-08T11:47:16.872Z,15.10
2018-03-08T11:49:46.237Z,15.40
2018-03-08T11:52:16.452Z,15.80
2018-03-08T11:59:47.065Z,16.00
2018-03-08T12:02:16.521Z,16.20
2018-03-08T12:04:46.440Z,15.90
2018-03-08T12:07:15.947Z,15.90
2018-03-08T12:09:45.757Z,15.90
2018-03-08T12:12:15.114Z,16.10
2018-03-08T12:19:44.948Z,16.10
2018-03-08T12:24:44.776Z,15.80
2018-03-08T12:27:13.771Z,15.70
2018-03-08T12:29:43.525Z,15.60
2018-03-08T12:34:43.084Z,15.70
2018-03-08T12:37:13.456Z,16.00
2018-03-08T12:39:43.619Z,15.70
2018-03-08T12:42:13.218Z,15.70
2018-03-08T12:47:12.833Z,16.00
2018-03-08T12:57:11.967Z,16.90
2018-03-08T13:02:10.919Z,18.30
2018-03-08T13:04:40.759Z,19.20
2018-03-08T13:07:10.218Z,19.30
2018-03-08T13:09:39.992Z,19.40
2018-03-08T13:14:41.601Z,18.80
2018-03-08T13:19:40.673Z,17.80
2018-03-08T13:22:09.732Z,18.40
2018-03-08T13:27:08.095Z,18.50
2018-03-08T13:29:37.493Z,18.70
2018-03-08T13:32:07.588Z,18.50
2018-03-08T13:34:37.795Z,17.90
2018-03-08T13:37:07.166Z,18.20
2018-03-08T13:39:38.364Z,18.10
2018-03-08T13:42:07.444Z,18.60
2018-03-08T13:44:37.158Z,18.20
2018-03-08T13:49:37.078Z,17.70
2018-03-08T13:52:05.818Z,17.50
2018-03-08T13:54:35.590Z,17.70
2018-03-08T13:57:04.561Z,17.60
2018-03-08T13:59:34.644Z,17.30
2018-03-08T14:02:04.082Z,16.90
2018-03-08T14:07:03.600Z,16.30
2018-03-08T14:09:33.997Z,16.20
2018-03-08T14:12:04.130Z,16.10
2018-03-08T14:19:33.316Z,16.10
2018-03-08T14:22:03.121Z,16.50
2018-03-08T14:27:02.666Z,16.50
2018-03-08T14:29:31.577Z,15.90
2018-03-08T14:32:01.033Z,15.80
2018-03-08T14:34:31.342Z,15.70
2018-03-08T14:37:00.796Z,15.90
2018-03-08T14:39:30.159Z,16.00
2018-03-08T14:41:59.567Z,16.00
2018-03-08T14:44:29.679Z,15.70
2018-03-08T14:51:58.726Z,15.20
2018-03-08T14:54:27.453Z,15.30
2018-03-08T14:59:26.516Z,15.90
2018-03-08T15:01:56.518Z,15.60
2018-03-08T15:04:25.891Z,15.60
2018-03-08T15:06:54.823Z,15.30
2018-03-08T15:09:23.674Z,15.30
2018-03-08T15:11:52.952Z,15.20
2018-03-08T15:14:22.161Z,15.20
2018-03-08T15:19:22.199Z,15.10
2018-03-08T15:21:51.292Z,15.00
2018-03-08T15:26:51.826Z,14.80
2018-03-08T15:29:20.996Z,14.90
2018-03-08T15:36:51.567Z,14.80
2018-03-08T15:39:21.228Z,14.90
2018-03-08T15:41:50.371Z,15.00
2018-03-08T15:56:51.481Z,15.00
2018-03-08T15:59:21.059Z,14.90
2018-03-08T16:01:50.183Z,14.80
2018-03-08T16:10:29.391Z,14.70
2018-03-08T16:15:28.131Z,14.50
2018-03-08T16:17:57.356Z,14.40
2018-03-08T16:20:26.829Z,14.40
2018-03-08T16:27:56.193Z,14.20
2018-03-08T16:32:56.102Z,14.00
2018-03-08T16:35:25.016Z,14.10
2018-03-08T16:37:54.280Z,14.30
2018-03-08T16:42:54.290Z,14.30
2018-03-08T16:50:24.594Z,14.20
2018-03-08T16:55:23.777Z,14.00
2018-03-08T17:00:23.926Z,13.90
2018-03-08T17:07:53.019Z,13.90
2018-03-08T17:10:22.357Z,13.80
2018-03-08T17:42:51.865Z,13.70
2018-03-08T17:57:51.389Z,13.70
2018-03-08T18:02:51.395Z,13.50
2018-03-08T18:08:01.261Z,13.50
2018-03-08T18:25:30.464Z,13.50
2018-03-08T18:30:36.335Z,13.50
2018-03-08T18:38:06.075Z,13.50
2018-03-08T18:40:35.521Z,13.50
2018-03-08T18:45:35.118Z,13.50
2018-03-08T18:48:06.353Z,13.50
2018-03-08T18:53:06.266Z,13.60
2018-03-08T19:00:51.701Z,13.60
2018-03-08T19:03:21.981Z,13.50
2018-03-08T19:08:21.797Z,13.60
2018-03-08T19:13:21.424Z,13.40
2018-03-08T19:15:51.603Z,13.50
2018-03-08T19:20:52.620Z,13.50
2018-03-08T19:28:22.472Z,13.40
2018-03-08T19:30:51.515Z,13.40
2018-03-08T19:33:20.389Z,13.30
2018-03-08T19:35:50.612Z,13.30
2018-03-08T19:40:50.643Z,13.30
2018-03-08T19:43:19.558Z,13.40
2018-03-08T19:45:49.021Z,13.40
2018-03-08T19:48:19.328Z,13.40
2018-03-08T19:50:48.830Z,13.50
2018-03-08T19:53:17.867Z,13.40
2018-03-08T19:55:47.779Z,13.40
2018-03-08T19:58:16.970Z,13.40
2018-03-08T20:00:45.805Z,13.40
2018-03-08T20:03:14.920Z,13.30
2018-03-08T20:05:44.015Z,13.40
2018-03-08T20:08:13.522Z,13.40
2018-03-08T20:10:42.862Z,13.30
2018-03-08T20:13:13.341Z,13.40
2018-03-08T20:15:43.141Z,13.40
2018-03-08T20:20:42.640Z,13.30
2018-03-08T20:23:12.883Z,13.30
2018-03-08T20:28:12.588Z,13.20
2018-03-08T20:30:42.032Z,13.20
2018-03-08T20:35:41.048Z,13.20
2018-03-08T20:40:41.133Z,13.20
2018-03-08T20:43:11.313Z,13.20
2018-03-08T20:45:41.161Z,13.20
2018-03-08T20:48:10.553Z,13.30
2018-03-08T20:50:39.950Z,13.20
2018-03-08T20:55:39.237Z,13.10
2018-03-08T20:58:08.685Z,13.10
2018-03-08T21:00:37.735Z,13.00
2018-03-08T21:05:37.721Z,13.00
2018-03-08T21:08:06.812Z,12.90
2018-03-08T21:10:36.061Z,12.90
2018-03-08T21:13:06.381Z,12.90
2018-03-08T21:15:36.705Z,13.00
2018-03-08T21:18:06.235Z,12.90
2018-03-08T21:23:06.354Z,13.00
2018-03-08T21:25:36.762Z,13.00
2018-03-08T21:28:05.587Z,13.00
2018-03-08T21:30:34.372Z,13.00
2018-03-08T21:35:32.826Z,13.00
2018-03-08T21:38:02.329Z,12.90
2018-03-08T21:40:31.003Z,12.90
2018-03-08T21:42:59.785Z,12.90
2018-03-08T21:45:28.857Z,12.80
2018-03-08T21:47:57.840Z,12.70
2018-03-08T21:50:26.478Z,10.60
2018-03-08T21:52:55.176Z,12.70
2018-03-08T21:57:55.183Z,12.70
2018-03-08T22:00:24.964Z,12.70
2018-03-08T22:02:53.749Z,12.70
2018-03-08T22:05:22.552Z,12.70
2018-03-08T22:07:51.206Z,12.60
2018-03-08T22:10:20.078Z,12.60
2018-03-08T22:12:48.763Z,12.60
2018-03-08T22:15:17.546Z,12.60
2018-03-08T22:17:46.506Z,12.60
2018-03-08T22:20:16.076Z,12.60
2018-03-08T22:22:45.576Z,12.60
2018-03-08T22:25:14.419Z,12.60
2018-03-08T22:27:44.015Z,12.60
2018-03-08T22:30:12.973Z,12.70
2018-03-08T22:32:42.144Z,12.60
2018-03-08T22:35:10.961Z,12.60
2018-03-08T22:37:39.624Z,12.60
2018-03-08T22:40:08.693Z,12.60
2018-03-08T22:42:38.189Z,12.60
2018-03-08T22:45:06.980Z,12.60
2018-03-08T22:47:35.616Z,12.60
2018-03-08T22:50:05.069Z,12.60
2018-03-08T22:52:33.752Z,12.50
2018-03-08T22:55:02.443Z,12.60
2018-03-08T22:57:31.439Z,12.60
2018-03-08T23:00:00.404Z,12.60
2018-03-08T23:02:34.156Z,12.60
2018-03-08T23:05:03.437Z,12.60
2018-03-08T23:07:32.334Z,12.60
2018-03-08T23:10:00.977Z,12.60
2018-03-08T23:12:29.944Z,12.60
2018-03-08T23:14:59.007Z,12.60
2018-03-08T23:17:28.183Z,12.60
2018-03-08T23:19:57.129Z,12.60
2018-03-08T23:22:27.163Z,12.60
2018-03-08T23:24:56.631Z,12.50
2018-03-08T23:27:25.363Z,12.50
2018-03-08T23:29:54.242Z,12.60
2018-03-08T23:32:22.992Z,12.50
2018-03-08T23:34:52.701Z,12.60
2018-03-08T23:37:21.470Z,12.60
2018-03-08T23:39:51.165Z,12.50
2018-03-08T23:42:20.072Z,12.50
2018-03-08T23:44:48.902Z,12.50
2018-03-08T23:47:17.649Z,12.50
2018-03-08T23:49:52.435Z,12.50
2018-03-08T23:52:22.092Z,12.50
2018-03-08T23:54:50.877Z,12.50
2018-03-08T23:57:20.257Z,12.50
2018-03-08T23:59:50.399Z,12.50
